createdAt,value
2019-04-14T00:01:17.244Z,6.55
2019-04-14T00:02:40.661Z,6.53
2019-04-14T00:03:54.346Z,6.50
2019-04-14T00:05:01.850Z,6.47
2019-04-14T00:06:07.277Z,6.47
2019-04-14T00:07:12.423Z,6.46
2019-04-14T00:08:17.738Z,6.46
2019-04-14T00:09:23.241Z,6.46
2019-04-14T00:10:29.008Z,6.47
2019-04-14T00:11:41.289Z,6.47
2019-04-14T00:12:47.060Z,6.49
2019-04-14T00:13:52.483Z,6.50
2019-04-14T00:14:57.851Z,6.51
2019-04-14T00:16:03.197Z,6.50
2019-04-14T00:17:08.774Z,6.50
2019-04-14T00:18:14.288Z,6.50
2019-04-14T00:19:19.767Z,6.50
2019-04-14T00:20:25.010Z,6.49
2019-04-14T00:21:30.446Z,6.45
2019-04-14T00:22:35.724Z,6.44
2019-04-14T00:23:41.777Z,6.40
2019-04-14T00:24:46.865Z,6.36
2019-04-14T00:25:52.232Z,6.33
2019-04-14T00:26:57.368Z,6.30
2019-04-14T00:28:03.014Z,6.27
2019-04-14T00:29:08.938Z,6.24
2019-04-14T00:30:16.531Z,6.20
2019-04-14T00:31:21.712Z,6.20
2019-04-14T00:32:27.461Z,6.17
2019-04-14T00:33:32.436Z,6.17
2019-04-14T00:34:57.176Z,6.17
2019-04-14T00:36:24.310Z,6.17
2019-04-14T00:37:38.055Z,6.19
2019-04-14T00:38:47.754Z,6.18
2019-04-14T00:39:55.485Z,6.17
2019-04-14T00:41:15.910Z,6.16
2019-04-14T00:42:38.759Z,6.15
2019-04-14T00:44:07.830Z,6.14
2019-04-14T00:45:32.277Z,6.13
2019-04-14T00:46:33.808Z,6.10
2019-04-14T00:47:51.796Z,6.07
2019-04-14T00:48:49.773Z,6.05
2019-04-14T00:49:55.182Z,6.04
2019-04-14T00:51:00.570Z,6.03
2019-04-14T00:52:06.047Z,6.01
2019-04-14T00:53:12.099Z,6.00
2019-04-14T00:54:17.548Z,5.99
2019-04-14T00:55:22.887Z,5.99
2019-04-14T00:56:27.970Z,5.99
2019-04-14T00:57:33.377Z,5.99
2019-04-14T00:58:38.959Z,5.99
2019-04-14T00:59:44.364Z,6.00
2019-04-14T01:00:50.151Z,6.02
2019-04-14T01:01:55.392Z,6.04
2019-04-14T01:03:00.781Z,6.05
2019-04-14T01:04:05.880Z,6.06
2019-04-14T01:05:13.140Z,6.09
2019-04-14T01:06:18.598Z,6.10
2019-04-14T01:07:26.550Z,6.12
2019-04-14T01:08:31.419Z,6.14
2019-04-14T01:09:36.960Z,6.14
2019-04-14T01:10:43.311Z,6.13
2019-04-14T01:11:48.810Z,6.12
2019-04-14T01:12:53.980Z,6.14
2019-04-14T01:13:59.418Z,6.14
2019-04-14T01:15:05.152Z,6.17
2019-04-14T01:16:16.609Z,6.18
2019-04-14T01:17:17.734Z,6.18
2019-04-14T01:18:23.273Z,6.18
2019-04-14T01:19:28.746Z,6.19
2019-04-14T01:20:34.778Z,6.22
2019-04-14T01:21:39.960Z,6.22
2019-04-14T01:22:46.613Z,6.22
2019-04-14T01:23:52.352Z,6.20
2019-04-14T01:24:57.602Z,6.19
2019-04-14T01:26:02.938Z,6.18
2019-04-14T01:27:08.141Z,6.18
2019-04-14T01:28:13.742Z,6.18
2019-04-14T01:29:19.090Z,6.18
2019-04-14T01:30:24.154Z,6.17
2019-04-14T01:31:29.585Z,6.16
2019-04-14T01:32:35.112Z,6.15
2019-04-14T01:33:42.243Z,6.11
2019-04-14T01:34:50.781Z,6.08
2019-04-14T01:35:55.332Z,6.05
2019-04-14T01:37:00.813Z,6.02
2019-04-14T01:38:06.010Z,5.98
2019-04-14T01:39:11.168Z,5.95
2019-04-14T01:40:20.590Z,5.93
2019-04-14T01:41:26.075Z,5.91
2019-04-14T01:42:31.127Z,5.90
2019-04-14T01:43:36.488Z,5.88
2019-04-14T01:44:41.672Z,5.87
2019-04-14T01:45:59.777Z,5.84
2019-04-14T01:46:54.285Z,5.84
2019-04-14T01:47:59.688Z,5.83
2019-04-14T01:49:05.034Z,5.79
2019-04-14T01:50:10.531Z,5.79
2019-04-14T01:51:25.174Z,5.78
2019-04-14T01:52:36.333Z,5.77
2019-04-14T01:54:06.306Z,5.75
2019-04-14T01:55:39.760Z,5.73
2019-04-14T01:57:06.755Z,5.71
2019-04-14T01:58:34.337Z,5.69
2019-04-14T01:59:39.346Z,5.66
2019-04-14T02:01:02.022Z,5.64
2019-04-14T02:02:09.711Z,5.64
2019-04-14T02:03:14.919Z,5.63
2019-04-14T02:04:20.441Z,5.63
2019-04-14T02:05:25.668Z,5.62
2019-04-14T02:06:33.339Z,5.61
2019-04-14T02:07:38.414Z,5.60
2019-04-14T02:08:43.718Z,5.59
2019-04-14T02:09:48.986Z,5.58
2019-04-14T02:10:54.376Z,5.57
2019-04-14T02:11:59.741Z,5.57
2019-04-14T02:13:05.061Z,5.56
2019-04-14T02:14:10.481Z,5.56
2019-04-14T02:15:15.528Z,5.56
2019-04-14T02:16:30.489Z,5.55
2019-04-14T02:17:28.413Z,5.55
2019-04-14T02:18:34.073Z,5.54
2019-04-14T02:19:39.304Z,5.54
2019-04-14T02:20:44.702Z,5.54
2019-04-14T02:21:50.378Z,5.51
2019-04-14T02:22:55.386Z,5.50
2019-04-14T02:24:02.439Z,5.48
2019-04-14T02:25:07.769Z,5.48
2019-04-14T02:26:13.258Z,5.47
2019-04-14T02:27:18.882Z,5.47
2019-04-14T02:28:24.274Z,5.46
2019-04-14T02:29:29.742Z,5.44
2019-04-14T02:30:41.689Z,5.43
2019-04-14T02:32:09.585Z,5.45
2019-04-14T02:33:17.753Z,5.46
2019-04-14T02:34:25.595Z,5.46
2019-04-14T02:35:28.501Z,5.47
2019-04-14T02:36:41.632Z,5.47
2019-04-14T02:37:43.294Z,5.48
2019-04-14T02:38:55.289Z,5.49
2019-04-14T02:40:03.873Z,5.51
2019-04-14T02:42:20.877Z,5.50
2019-04-14T02:43:25.789Z,5.51
2019-04-14T02:45:36.654Z,5.54
2019-04-14T02:49:56.586Z,5.57
2019-04-14T02:51:21.114Z,5.56
2019-04-14T02:52:11.623Z,5.55
2019-04-14T02:53:24.300Z,5.57
2019-04-14T02:55:34.192Z,5.58
2019-04-14T02:57:49.463Z,5.60
2019-04-14T02:58:58.580Z,5.59
2019-04-14T03:00:11.292Z,5.58
2019-04-14T03:02:22.917Z,5.58
2019-04-14T03:03:22.918Z,5.56
2019-04-14T03:04:27.700Z,5.54
2019-04-14T03:05:39.600Z,5.51
2019-04-14T03:06:41.437Z,5.49
2019-04-14T03:08:59.079Z,5.46
2019-04-14T03:10:18.519Z,5.45
2019-04-14T03:11:14.742Z,5.43
2019-04-14T03:12:19.222Z,5.43
2019-04-14T03:14:30.442Z,5.40
2019-04-14T03:15:39.656Z,5.41
2019-04-14T03:18:40.494Z,5.41
2019-04-14T03:21:34.485Z,5.38
2019-04-14T03:22:55.811Z,5.35
2019-04-14T03:25:30.111Z,5.32
2019-04-14T03:27:04.910Z,5.30
2019-04-14T03:28:27.947Z,5.28
2019-04-14T03:29:50.370Z,5.27
2019-04-14T03:33:27.034Z,5.24
2019-04-14T03:35:47.863Z,5.25
2019-04-14T03:38:52.326Z,5.24
2019-04-14T03:39:40.432Z,5.24
2019-04-14T03:41:56.823Z,5.23
2019-04-14T03:43:01.718Z,5.23
2019-04-14T03:44:01.632Z,5.23
2019-04-14T03:45:14.436Z,5.22
2019-04-14T03:46:25.429Z,5.22
2019-04-14T03:47:25.480Z,5.22
2019-04-14T03:50:52.483Z,5.23
2019-04-14T03:53:08.127Z,5.23
2019-04-14T03:54:06.234Z,5.24
2019-04-14T03:55:05.911Z,5.27
2019-04-14T03:56:49.094Z,5.28
2019-04-14T03:57:54.418Z,5.27
2019-04-14T03:58:59.816Z,5.26
2019-04-14T04:00:05.793Z,5.26
2019-04-14T04:01:10.741Z,5.24
2019-04-14T04:02:16.153Z,5.24
2019-04-14T04:03:21.825Z,5.24
2019-04-14T04:04:27.475Z,5.23
2019-04-14T04:05:32.949Z,5.23
2019-04-14T04:06:38.280Z,5.23
2019-04-14T04:07:43.339Z,5.22
2019-04-14T04:08:48.516Z,5.23
2019-04-14T04:10:03.011Z,5.23
2019-04-14T04:11:08.537Z,5.24
2019-04-14T04:12:13.987Z,5.24
2019-04-14T04:13:19.352Z,5.24
2019-04-14T04:14:24.668Z,5.26
2019-04-14T04:15:30.036Z,5.27
2019-04-14T04:16:46.102Z,5.28
2019-04-14T04:18:02.637Z,5.29
2019-04-14T04:19:18.566Z,5.31
2019-04-14T04:20:43.448Z,5.31
2019-04-14T04:22:10.652Z,5.34
2019-04-14T04:23:35.636Z,5.37
2019-04-14T04:24:47.518Z,5.40
2019-04-14T04:26:14.486Z,5.44
2019-04-14T04:27:30.864Z,5.46
2019-04-14T04:29:07.138Z,5.48
2019-04-14T04:30:17.170Z,5.51
2019-04-14T04:31:40.133Z,5.53
2019-04-14T04:33:22.315Z,5.54
2019-04-14T04:34:33.791Z,5.57
2019-04-14T04:35:45.916Z,5.57
2019-04-14T04:36:57.856Z,5.57
2019-04-14T04:38:28.788Z,5.58
2019-04-14T04:39:38.132Z,5.59
2019-04-14T04:40:43.978Z,5.59
2019-04-14T04:41:49.465Z,5.60
2019-04-14T04:42:54.919Z,5.62
2019-04-14T04:44:00.703Z,5.63
2019-04-14T04:45:06.131Z,5.64
2019-04-14T04:46:11.364Z,5.66
2019-04-14T04:47:16.688Z,5.67
2019-04-14T04:48:21.808Z,5.67
2019-04-14T04:49:29.279Z,5.70
2019-04-14T04:50:34.669Z,5.70
2019-04-14T04:51:40.031Z,5.70
2019-04-14T04:52:45.554Z,5.71
2019-04-14T04:53:50.586Z,5.72
2019-04-14T04:54:55.964Z,5.73
2019-04-14T04:56:01.498Z,5.74
2019-04-14T04:57:06.922Z,5.74
2019-04-14T04:58:12.157Z,5.74
2019-04-14T04:59:17.423Z,5.74
2019-04-14T05:00:22.726Z,5.76
2019-04-14T05:01:27.669Z,5.76
2019-04-14T05:02:33.162Z,5.78
2019-04-14T05:03:38.529Z,5.79
2019-04-14T05:04:43.929Z,5.82
2019-04-14T05:06:44.371Z,5.82
2019-04-14T05:07:49.323Z,5.83
2019-04-14T05:08:57.005Z,5.81
2019-04-14T05:10:15.383Z,5.80
2019-04-14T05:11:29.411Z,5.79
2019-04-14T05:12:50.236Z,5.80
2019-04-14T05:13:55.937Z,5.81
2019-04-14T05:15:18.839Z,5.82
2019-04-14T05:16:24.470Z,5.83
2019-04-14T05:17:29.873Z,5.85
2019-04-14T05:18:35.556Z,5.86
2019-04-14T05:19:42.138Z,5.90
2019-04-14T05:20:48.766Z,5.92
2019-04-14T05:21:54.092Z,5.95
2019-04-14T05:22:59.400Z,5.98
2019-04-14T05:24:04.936Z,6.01
2019-04-14T05:25:10.268Z,6.04
2019-04-14T05:26:15.625Z,6.08
2019-04-14T05:27:21.104Z,6.11
2019-04-14T05:28:26.707Z,6.12
2019-04-14T05:29:31.894Z,6.15
2019-04-14T05:30:37.156Z,6.17
2019-04-14T05:31:42.580Z,6.20
2019-04-14T05:32:48.162Z,6.22
2019-04-14T05:33:53.359Z,6.26
2019-04-14T05:34:58.707Z,6.27
2019-04-14T05:36:04.254Z,6.29
2019-04-14T05:37:09.916Z,6.34
2019-04-14T05:38:14.947Z,6.37
2019-04-14T05:39:20.315Z,6.36
2019-04-14T05:40:25.622Z,6.37
2019-04-14T05:41:30.889Z,6.37
2019-04-14T05:42:36.515Z,6.37
2019-04-14T05:43:49.809Z,6.34
2019-04-14T05:44:49.341Z,6.34
2019-04-14T05:45:54.539Z,6.34
2019-04-14T05:47:00.075Z,6.34
2019-04-14T05:48:05.535Z,6.32
2019-04-14T05:49:12.086Z,6.34
2019-04-14T05:50:18.174Z,6.33
2019-04-14T05:51:24.850Z,6.35
2019-04-14T05:52:30.341Z,6.35
2019-04-14T05:53:35.346Z,6.36
2019-04-14T05:54:40.492Z,6.36
2019-04-14T05:55:45.983Z,6.37
2019-04-14T05:56:51.643Z,6.38
2019-04-14T05:57:56.917Z,6.41
2019-04-14T05:59:02.251Z,6.43
2019-04-14T06:00:10.343Z,6.45
2019-04-14T06:01:16.074Z,6.48
2019-04-14T06:02:22.236Z,6.51
2019-04-14T06:03:27.785Z,6.55
2019-04-14T06:04:33.222Z,6.59
2019-04-14T06:05:38.324Z,6.61
2019-04-14T06:06:43.326Z,6.65
2019-04-14T06:07:48.380Z,6.70
2019-04-14T06:08:54.344Z,6.75
2019-04-14T06:09:59.281Z,6.78
2019-04-14T06:11:04.263Z,6.80
2019-04-14T06:12:09.285Z,6.81
2019-04-14T06:13:14.309Z,6.84
2019-04-14T06:14:19.277Z,6.81
2019-04-14T06:15:24.212Z,6.80
2019-04-14T06:16:29.187Z,6.77
2019-04-14T06:17:34.446Z,6.76
2019-04-14T06:18:39.949Z,6.77
2019-04-14T06:19:44.890Z,6.80
2019-04-14T06:20:49.914Z,6.80
2019-04-14T06:21:55.042Z,6.81
2019-04-14T06:22:59.978Z,6.82
2019-04-14T06:24:05.274Z,6.83
2019-04-14T06:25:10.590Z,6.84
2019-04-14T06:26:15.615Z,6.83
2019-04-14T06:27:20.553Z,6.83
2019-04-14T06:28:25.486Z,6.80
2019-04-14T06:29:30.774Z,6.79
2019-04-14T06:30:53.363Z,6.77
2019-04-14T06:32:08.167Z,6.78
2019-04-14T06:33:30.831Z,6.79
2019-04-14T06:34:50.959Z,6.80
2019-04-14T06:36:12.003Z,6.80
2019-04-14T06:37:28.007Z,6.81
2019-04-14T06:38:34.941Z,6.84
2019-04-14T06:39:43.223Z,6.83
2019-04-14T06:40:52.788Z,6.82
2019-04-14T06:41:57.895Z,6.83
2019-04-14T06:43:02.811Z,6.81
2019-04-14T06:44:08.146Z,6.79
2019-04-14T06:45:13.520Z,6.79
2019-04-14T06:46:18.867Z,6.80
2019-04-14T06:47:23.845Z,6.80
2019-04-14T06:48:28.907Z,6.83
2019-04-14T06:49:34.140Z,6.84
2019-04-14T06:50:39.337Z,6.86
2019-04-14T06:51:44.405Z,6.89
2019-04-14T06:52:49.346Z,6.91
2019-04-14T06:53:54.556Z,6.94
2019-04-14T06:54:59.564Z,6.96
2019-04-14T06:56:05.634Z,6.98
2019-04-14T06:57:10.719Z,6.98
2019-04-14T06:58:15.819Z,6.98
2019-04-14T06:59:20.737Z,6.99
2019-04-14T07:00:25.679Z,6.99
2019-04-14T07:01:30.689Z,7.02
2019-04-14T07:02:35.776Z,7.04
2019-04-14T07:03:40.749Z,7.06
2019-04-14T07:04:45.853Z,7.08
2019-04-14T07:05:51.088Z,7.07
2019-04-14T07:06:56.054Z,7.09
2019-04-14T07:08:01.022Z,7.11
2019-04-14T07:09:07.406Z,7.14
2019-04-14T07:10:12.506Z,7.17
2019-04-14T07:11:17.684Z,7.19
2019-04-14T07:12:22.653Z,7.22
2019-04-14T07:13:27.598Z,7.23
2019-04-14T07:14:32.580Z,7.25
2019-04-14T07:15:37.796Z,7.27
2019-04-14T07:16:42.836Z,7.28
2019-04-14T07:17:47.783Z,7.30
2019-04-14T07:18:53.160Z,7.32
2019-04-14T07:20:02.299Z,7.33
2019-04-14T07:21:04.983Z,7.33
2019-04-14T07:22:09.896Z,7.34
2019-04-14T07:23:14.887Z,7.34
2019-04-14T07:24:19.860Z,7.36
2019-04-14T07:25:24.781Z,7.36
2019-04-14T07:26:29.813Z,7.36
2019-04-14T07:27:35.127Z,7.37
2019-04-14T07:28:40.343Z,7.38
2019-04-14T07:29:54.491Z,7.39
2019-04-14T07:31:36.977Z,7.42
2019-04-14T07:33:10.532Z,7.46
2019-04-14T07:34:36.173Z,7.51
2019-04-14T07:36:11.006Z,7.53
2019-04-14T07:37:46.725Z,7.54
2019-04-14T07:39:09.646Z,7.57
2019-04-14T07:40:23.479Z,7.57
2019-04-14T07:41:33.461Z,7.55
2019-04-14T07:42:52.454Z,7.55
2019-04-14T07:44:22.979Z,7.55
2019-04-14T07:45:34.021Z,7.54
2019-04-14T07:46:45.744Z,7.54
2019-04-14T07:48:12.988Z,7.56
2019-04-14T07:49:49.198Z,7.56
2019-04-14T07:51:10.465Z,7.56
2019-04-14T07:52:34.128Z,7.55
2019-04-14T07:54:00.918Z,7.55
2019-04-14T07:55:29.014Z,7.55
2019-04-14T07:56:45.508Z,7.53
2019-04-14T07:57:59.024Z,7.53
2019-04-14T07:59:26.020Z,7.54
2019-04-14T08:01:55.913Z,7.54
2019-04-14T08:03:05.813Z,7.55
2019-04-14T08:04:23.782Z,7.56
2019-04-14T08:05:32.060Z,7.58
2019-04-14T08:06:38.447Z,7.59
2019-04-14T08:07:43.967Z,7.64
2019-04-14T08:08:49.279Z,7.67
2019-04-14T08:09:54.479Z,7.70
2019-04-14T08:10:59.538Z,7.72
2019-04-14T08:12:04.665Z,7.73
2019-04-14T08:13:10.014Z,7.78
2019-04-14T08:14:15.066Z,7.78
2019-04-14T08:15:19.985Z,7.79
2019-04-14T08:16:25.087Z,7.79
2019-04-14T08:17:30.008Z,7.82
2019-04-14T08:18:35.036Z,7.84
2019-04-14T08:19:40.050Z,7.87
2019-04-14T08:20:45.054Z,7.90
2019-04-14T08:21:49.973Z,7.91
2019-04-14T08:22:57.654Z,7.92
2019-04-14T08:24:01.633Z,7.94
2019-04-14T08:25:07.554Z,7.94
2019-04-14T08:26:12.555Z,7.94
2019-04-14T08:27:17.960Z,7.94
2019-04-14T08:28:22.992Z,7.93
2019-04-14T08:29:28.014Z,7.93
2019-04-14T08:30:33.268Z,7.94
2019-04-14T08:31:38.367Z,7.96
2019-04-14T08:32:43.658Z,7.97
2019-04-14T08:33:48.674Z,8.00
2019-04-14T08:34:53.996Z,8.01
2019-04-14T08:35:59.023Z,8.03
2019-04-14T08:37:04.067Z,8.04
2019-04-14T08:38:09.099Z,8.08
2019-04-14T08:39:14.126Z,8.11
2019-04-14T08:40:19.213Z,8.14
2019-04-14T08:41:24.154Z,8.18
2019-04-14T08:42:48.565Z,8.21
2019-04-14T08:44:16.273Z,8.22
2019-04-14T08:45:27.128Z,8.23
2019-04-14T08:48:42.063Z,8.25
2019-04-14T08:49:59.479Z,8.25
2019-04-14T08:51:32.791Z,8.27
2019-04-14T08:52:44.868Z,8.28
2019-04-14T08:53:59.523Z,8.28
2019-04-14T08:55:16.387Z,8.28
2019-04-14T08:56:29.366Z,8.29
2019-04-14T08:57:47.031Z,8.30
2019-04-14T08:59:23.292Z,8.30
2019-04-14T09:00:47.607Z,8.32
2019-04-14T09:02:23.880Z,8.34
2019-04-14T09:03:51.042Z,8.36
2019-04-14T09:05:15.386Z,8.36
2019-04-14T09:06:51.997Z,8.36
2019-04-14T09:08:18.191Z,8.38
2019-04-14T09:09:28.604Z,8.40
2019-04-14T09:10:37.192Z,8.43
2019-04-14T09:11:48.008Z,8.45
2019-04-14T09:12:54.451Z,8.48
2019-04-14T09:13:59.392Z,8.50
2019-04-14T09:15:04.819Z,8.54
2019-04-14T09:16:09.777Z,8.55
2019-04-14T09:17:15.195Z,8.59
2019-04-14T09:18:20.407Z,8.61
2019-04-14T09:19:25.644Z,8.63
2019-04-14T09:20:30.766Z,8.66
2019-04-14T09:21:35.797Z,8.69
2019-04-14T09:22:40.786Z,8.71
2019-04-14T09:23:45.840Z,8.73
2019-04-14T09:24:50.765Z,8.74
2019-04-14T09:25:56.104Z,8.76
2019-04-14T09:27:01.428Z,8.78
2019-04-14T09:28:06.506Z,8.80
2019-04-14T09:29:11.529Z,8.83
2019-04-14T09:30:16.821Z,8.86
2019-04-14T09:31:21.775Z,8.89
2019-04-14T09:32:27.444Z,8.94
2019-04-14T09:33:32.457Z,8.98
2019-04-14T09:34:37.543Z,9.00
2019-04-14T09:35:42.579Z,9.04
2019-04-14T09:36:47.885Z,9.06
2019-04-14T09:37:52.891Z,9.10
2019-04-14T09:38:57.924Z,9.10
2019-04-14T09:40:02.958Z,9.14
2019-04-14T09:41:07.913Z,9.16
2019-04-14T09:42:12.883Z,9.19
2019-04-14T09:43:18.157Z,9.21
2019-04-14T09:44:23.367Z,9.23
2019-04-14T09:45:28.481Z,9.22
2019-04-14T09:46:33.426Z,9.22
2019-04-14T09:47:38.370Z,9.23
2019-04-14T09:48:43.312Z,9.22
2019-04-14T09:49:48.651Z,9.24
2019-04-14T09:51:04.321Z,9.24
2019-04-14T09:52:00.189Z,9.24
2019-04-14T09:53:08.924Z,9.23
2019-04-14T09:54:13.843Z,9.23
2019-04-14T09:55:18.936Z,9.21
2019-04-14T09:56:23.944Z,9.28
2019-04-14T09:57:28.880Z,9.28
2019-04-14T09:58:33.841Z,9.29
2019-04-14T09:59:39.321Z,9.31
2019-04-14T10:00:44.465Z,9.34
2019-04-14T10:01:52.688Z,9.35
2019-04-14T10:02:57.974Z,9.36
2019-04-14T10:04:02.957Z,9.39
2019-04-14T10:05:08.185Z,9.41
2019-04-14T10:06:13.128Z,9.45
2019-04-14T10:07:18.381Z,9.49
2019-04-14T10:08:23.394Z,9.50
2019-04-14T10:09:28.549Z,9.53
2019-04-14T10:10:33.850Z,9.57
2019-04-14T10:11:48.458Z,9.58
2019-04-14T10:12:48.081Z,9.61
2019-04-14T10:13:53.020Z,9.64
2019-04-14T10:14:57.990Z,9.67
2019-04-14T10:16:03.263Z,9.68
2019-04-14T10:17:08.567Z,9.70
2019-04-14T10:18:13.489Z,9.72
2019-04-14T10:19:18.627Z,9.74
2019-04-14T10:20:23.549Z,9.77
2019-04-14T10:21:28.632Z,9.79
2019-04-14T10:22:34.544Z,9.80
2019-04-14T10:23:43.066Z,9.81
2019-04-14T10:24:48.212Z,9.81
2019-04-14T10:25:53.243Z,9.81
2019-04-14T10:26:58.454Z,9.80
2019-04-14T10:28:03.909Z,9.78
2019-04-14T10:29:08.906Z,9.75
2019-04-14T10:30:14.112Z,9.73
2019-04-14T10:31:19.056Z,9.72
2019-04-14T10:32:24.071Z,9.71
2019-04-14T10:33:29.083Z,9.72
2019-04-14T10:34:34.507Z,9.72
2019-04-14T10:35:39.554Z,9.74
2019-04-14T10:36:44.694Z,9.81
2019-04-14T10:37:49.646Z,9.81
2019-04-14T10:38:54.909Z,9.86
2019-04-14T10:40:00.236Z,9.90
2019-04-14T10:41:05.200Z,9.94
2019-04-14T10:42:10.530Z,9.98
2019-04-14T10:43:15.504Z,9.99
2019-04-14T10:44:20.446Z,10.02
2019-04-14T10:45:25.451Z,10.05
2019-04-14T10:46:30.477Z,10.06
2019-04-14T10:47:35.818Z,10.10
2019-04-14T10:48:40.894Z,10.10
2019-04-14T10:49:46.253Z,10.16
2019-04-14T10:50:51.365Z,10.18
2019-04-14T10:51:56.430Z,10.15
2019-04-14T10:53:01.464Z,10.23
2019-04-14T10:54:06.501Z,10.23
2019-04-14T10:55:12.040Z,10.24
2019-04-14T10:56:17.013Z,10.31
2019-04-14T10:57:21.940Z,10.34
2019-04-14T10:58:26.937Z,10.34
2019-04-14T10:59:31.903Z,10.35
2019-04-14T11:00:36.847Z,10.35
2019-04-14T11:01:42.043Z,10.37
2019-04-14T11:02:46.977Z,10.39
2019-04-14T11:03:51.972Z,10.42
2019-04-14T11:04:57.183Z,10.44
2019-04-14T11:06:23.389Z,10.48
2019-04-14T11:07:30.187Z,10.49
2019-04-14T11:08:35.153Z,10.52
2019-04-14T11:09:40.432Z,10.50
2019-04-14T11:10:45.358Z,10.54
2019-04-14T11:11:50.767Z,10.52
2019-04-14T11:12:55.812Z,10.53
2019-04-14T11:14:00.970Z,10.54
2019-04-14T11:15:06.866Z,10.55
2019-04-14T11:16:11.862Z,10.55
2019-04-14T11:17:16.824Z,10.56
2019-04-14T11:18:21.833Z,10.56
2019-04-14T11:19:26.960Z,10.57
2019-04-14T11:20:32.246Z,10.58
2019-04-14T11:21:42.700Z,10.59
2019-04-14T11:22:43.791Z,10.61
2019-04-14T11:23:48.712Z,10.64
2019-04-14T11:24:53.658Z,10.68
2019-04-14T11:25:58.685Z,10.69
2019-04-14T11:27:03.741Z,10.70
2019-04-14T11:28:08.871Z,10.70
2019-04-14T11:29:13.942Z,10.71
2019-04-14T11:30:20.793Z,10.75
2019-04-14T11:31:42.804Z,10.76
2019-04-14T11:32:53.215Z,10.76
2019-04-14T11:34:01.951Z,10.75
2019-04-14T11:35:29.043Z,10.75
2019-04-14T11:36:53.187Z,10.78
2019-04-14T11:38:26.198Z,10.82
2019-04-14T11:39:31.124Z,10.88
2019-04-14T11:40:41.335Z,10.93
2019-04-14T11:41:46.424Z,10.97
2019-04-14T11:42:52.788Z,11.00
2019-04-14T11:43:57.915Z,11.03
2019-04-14T11:45:03.228Z,11.06
2019-04-14T11:46:08.221Z,11.09
2019-04-14T11:47:16.085Z,11.12
2019-04-14T11:48:20.019Z,11.16
2019-04-14T11:49:25.034Z,11.19
2019-04-14T11:50:29.966Z,11.20
2019-04-14T11:51:35.104Z,11.21
2019-04-14T11:52:40.307Z,11.19
2019-04-14T11:53:45.622Z,11.17
2019-04-14T11:54:50.551Z,11.18
2019-04-14T11:55:55.566Z,11.18
2019-04-14T11:57:00.545Z,11.19
2019-04-14T11:58:05.726Z,11.19
2019-04-14T11:59:10.988Z,11.19
2019-04-14T12:00:41.491Z,11.21
2019-04-14T12:01:59.271Z,11.22
2019-04-14T12:03:26.780Z,11.20
2019-04-14T12:04:41.261Z,11.19
2019-04-14T12:06:04.167Z,11.19
2019-04-14T12:07:15.677Z,11.19
2019-04-14T12:08:27.547Z,11.21
2019-04-14T12:09:39.496Z,11.22
2019-04-14T12:10:44.543Z,11.25
2019-04-14T12:11:49.576Z,11.26
2019-04-14T12:12:54.763Z,11.27
2019-04-14T12:13:59.703Z,11.29
2019-04-14T12:15:07.587Z,11.31
2019-04-14T12:16:12.767Z,11.33
2019-04-14T12:17:17.853Z,11.33
2019-04-14T12:18:22.922Z,11.34
2019-04-14T12:19:28.054Z,11.35
2019-04-14T12:20:33.065Z,11.37
2019-04-14T12:21:38.107Z,11.39
2019-04-14T12:22:43.013Z,11.41
2019-04-14T12:23:48.314Z,11.42
2019-04-14T12:24:53.226Z,11.44
2019-04-14T12:26:05.098Z,11.44
2019-04-14T12:27:05.516Z,11.43
2019-04-14T12:28:11.375Z,11.42
2019-04-14T12:29:16.750Z,11.43
2019-04-14T12:30:22.390Z,11.44
2019-04-14T12:31:28.727Z,11.45
2019-04-14T12:32:33.753Z,11.47
2019-04-14T12:33:39.563Z,11.47
2019-04-14T12:34:44.788Z,11.48
2019-04-14T12:35:49.749Z,11.52
2019-04-14T12:36:54.792Z,11.53
2019-04-14T12:37:59.735Z,11.55
2019-04-14T12:39:09.167Z,11.55
2019-04-14T12:40:15.201Z,11.57
2019-04-14T12:41:31.565Z,11.60
2019-04-14T12:42:55.809Z,11.64
2019-04-14T12:44:18.593Z,11.67
2019-04-14T12:45:41.476Z,11.70
2019-04-14T12:46:54.953Z,11.72
2019-04-14T12:48:21.989Z,11.72
2019-04-14T12:49:37.560Z,11.72
2019-04-14T12:50:46.972Z,11.77
2019-04-14T12:52:20.482Z,11.82
2019-04-14T12:53:19.592Z,11.86
2019-04-14T12:54:25.693Z,11.92
2019-04-14T12:55:30.723Z,11.94
2019-04-14T12:56:35.792Z,11.96
2019-04-14T12:57:53.134Z,11.99
2019-04-14T12:59:17.681Z,12.00
2019-04-14T13:00:35.355Z,12.03
2019-04-14T13:01:45.462Z,12.03
2019-04-14T13:02:51.890Z,12.00
2019-04-14T13:03:57.174Z,12.00
2019-04-14T13:05:02.491Z,12.01
2019-04-14T13:06:07.590Z,12.04
2019-04-14T13:07:12.886Z,12.06
2019-04-14T13:08:17.925Z,12.04
2019-04-14T13:09:22.861Z,12.03
2019-04-14T13:10:27.925Z,12.00
2019-04-14T13:11:32.978Z,12.00
2019-04-14T13:12:38.233Z,12.01
2019-04-14T13:13:43.239Z,12.03
2019-04-14T13:14:48.255Z,12.01
2019-04-14T13:15:53.251Z,12.01
2019-04-14T13:16:58.376Z,12.01
2019-04-14T13:18:03.415Z,12.03
2019-04-14T13:19:08.431Z,12.05
2019-04-14T13:20:13.743Z,12.05
2019-04-14T13:21:18.785Z,12.06
2019-04-14T13:22:33.930Z,12.03
2019-04-14T13:23:31.174Z,12.05
2019-04-14T13:24:36.290Z,12.04
2019-04-14T13:25:41.282Z,12.06
2019-04-14T13:26:46.329Z,12.08
2019-04-14T13:27:51.490Z,12.08
2019-04-14T13:28:56.485Z,12.09
2019-04-14T13:30:01.885Z,12.11
2019-04-14T13:31:08.502Z,12.12
2019-04-14T13:32:13.523Z,12.13
2019-04-14T13:33:18.635Z,12.15
2019-04-14T13:34:23.630Z,12.15
2019-04-14T13:35:28.611Z,12.15
2019-04-14T13:36:33.537Z,12.16
2019-04-14T13:37:38.564Z,12.16
2019-04-14T13:38:43.982Z,12.16
2019-04-14T13:39:49.229Z,12.15
2019-04-14T13:40:54.153Z,12.15
2019-04-14T13:41:59.905Z,12.16
2019-04-14T13:43:04.858Z,12.19
2019-04-14T13:44:10.372Z,12.18
2019-04-14T13:45:15.479Z,12.18
2019-04-14T13:46:20.721Z,12.17
2019-04-14T13:47:25.675Z,12.18
2019-04-14T13:48:30.995Z,12.19
2019-04-14T13:49:35.967Z,12.20
2019-04-14T13:50:41.596Z,12.21
2019-04-14T13:51:46.514Z,12.22
2019-04-14T13:52:59.215Z,12.21
2019-04-14T13:54:04.427Z,12.26
2019-04-14T13:55:09.882Z,12.31
2019-04-14T13:56:14.931Z,12.35
2019-04-14T13:57:19.941Z,12.38
2019-04-14T13:58:24.905Z,12.40
2019-04-14T13:59:30.137Z,12.43
2019-04-14T14:00:35.508Z,12.45
2019-04-14T14:01:40.830Z,12.45
2019-04-14T14:02:45.802Z,12.43
2019-04-14T14:03:50.868Z,12.41
2019-04-14T14:04:55.839Z,12.35
2019-04-14T14:06:00.757Z,12.30
2019-04-14T14:07:06.218Z,12.26
2019-04-14T14:08:11.328Z,12.21
2019-04-14T14:09:16.959Z,12.19
2019-04-14T14:10:22.064Z,12.19
2019-04-14T14:11:36.134Z,12.20
2019-04-14T14:13:00.088Z,12.22
2019-04-14T14:14:10.775Z,12.23
2019-04-14T14:15:33.610Z,12.24
2019-04-14T14:16:56.861Z,12.24
2019-04-14T14:18:23.568Z,12.26
2019-04-14T14:19:35.595Z,12.26
2019-04-14T14:21:12.041Z,12.30
2019-04-14T14:22:41.771Z,12.33
2019-04-14T14:24:11.528Z,12.36
2019-04-14T14:25:20.865Z,12.35
2019-04-14T14:26:27.180Z,12.33
2019-04-14T14:27:32.167Z,12.33
2019-04-14T14:28:38.673Z,12.31
2019-04-14T14:29:43.826Z,12.31
2019-04-14T14:30:48.906Z,12.32
2019-04-14T14:31:54.192Z,12.35
2019-04-14T14:32:59.214Z,12.38
2019-04-14T14:34:04.331Z,12.41
2019-04-14T14:35:09.838Z,12.43
2019-04-14T14:36:14.881Z,12.44
2019-04-14T14:37:19.991Z,12.45
2019-04-14T14:38:25.369Z,12.48
2019-04-14T14:39:30.519Z,12.50
2019-04-14T14:40:35.837Z,12.53
2019-04-14T14:41:40.795Z,12.54
2019-04-14T14:42:46.013Z,12.54
2019-04-14T14:43:51.353Z,12.55
2019-04-14T14:45:11.612Z,12.56
2019-04-14T14:46:36.899Z,12.52
2019-04-14T14:47:46.086Z,12.50
2019-04-14T14:48:56.219Z,12.45
2019-04-14T14:50:07.930Z,12.41
2019-04-14T14:51:31.918Z,12.37
2019-04-14T14:52:38.492Z,12.36
2019-04-14T14:53:43.414Z,12.35
2019-04-14T14:54:48.454Z,12.35
2019-04-14T14:55:53.455Z,12.36
2019-04-14T14:56:58.984Z,12.37
2019-04-14T14:58:04.258Z,12.38
2019-04-14T14:59:09.664Z,12.39
2019-04-14T15:00:25.397Z,12.43
2019-04-14T15:01:30.753Z,12.46
2019-04-14T15:02:35.736Z,12.52
2019-04-14T15:03:40.727Z,12.57
2019-04-14T15:04:45.642Z,12.61
2019-04-14T15:05:51.017Z,12.65
2019-04-14T15:06:55.950Z,12.66
2019-04-14T15:08:01.042Z,12.65
2019-04-14T15:09:07.727Z,12.63
2019-04-14T15:10:12.805Z,12.60
2019-04-14T15:11:18.011Z,12.54
2019-04-14T15:12:23.219Z,12.47
2019-04-14T15:13:28.286Z,12.43
2019-04-14T15:14:33.601Z,12.40
2019-04-14T15:15:38.547Z,12.37
2019-04-14T15:16:44.004Z,12.36
2019-04-14T15:17:48.938Z,12.36
2019-04-14T15:18:53.880Z,12.36
2019-04-14T15:19:58.856Z,12.38
2019-04-14T15:21:03.886Z,12.42
2019-04-14T15:22:08.893Z,12.45
2019-04-14T15:23:24.361Z,12.49
2019-04-14T15:24:20.725Z,12.54
2019-04-14T15:25:26.060Z,12.57
2019-04-14T15:26:32.111Z,12.58
2019-04-14T15:27:37.396Z,12.59
2019-04-14T15:28:42.669Z,12.60
2019-04-14T15:29:47.717Z,12.62
2019-04-14T15:30:56.165Z,12.63